Time;durP1;ratioP1;P1;durP2;ratioP2;P2;SDS_P1;SDS_P2;PMS_P1;PMS_P2;Temp;Humidity;BMP_temperature;BMP_pressure;BME280_temperature;BME280_humidity;BME280_pressure;Samples;Min_cycle;Max_cycle;Signal;HPM_P1;HPM_P2
2022/06/06 00:00:39;;;;;;;32.60;15.82;;;15.30;99.90;;;;;;5008907;28;20042;-44
2022/06/06 00:03:05;;;;;;;54.88;19.67;;;15.30;99.90;;;;;;5008867;28;20054;-43
2022/06/06 00:05:31;;;;;;;47.33;18.13;;;15.50;99.90;;;;;;5008647;28;20512;-44
2022/06/06 00:07:58;;;;;;;64.43;20.83;;;15.20;99.90;;;;;;5008381;28;20042;-43
2022/06/06 00:10:24;;;;;;;40.55;17.88;;;15.30;99.90;;;;;;5008929;28;20049;-45
2022/06/06 00:12:50;;;;;;;22.95;13.73;;;15.20;99.90;;;;;;5008655;28;20053;-44
2022/06/06 00:15:16;;;;;;;22.25;14.07;;;15.20;99.90;;;;;;5008529;28;20058;-45
2022/06/06 00:17:42;;;;;;;15.32;12.07;;;15.20;99.90;;;;;;5008581;28;20053;-46
2022/06/06 00:20:09;;;;;;;18.08;12.20;;;15.20;99.90;;;;;;5008922;28;20044;-45
2022/06/06 00:22:35;;;;;;;25.65;13.30;;;15.10;99.90;;;;;;5007887;28;20504;-46
2022/06/06 00:25:01;;;;;;;16.58;10.98;;;15.10;99.90;;;;;;5009017;28;20141;-44
2022/06/06 00:27:26;;;;;;;17.80;10.90;;;15.00;99.90;;;;;;5008745;28;20413;-46
2022/06/06 00:29:53;;;;;;;14.10;11.07;;;15.00;99.90;;;;;;5009136;28;20121;-45
2022/06/06 00:35:06;;;;;;;15.15;9.90;;;14.90;99.90;;;;;;5008726;28;20737;-44
2022/06/06 00:37:34;;;;;;;13.48;10.30;;;14.90;99.90;;;;;;5008678;28;20516;-46
2022/06/06 00:40:04;;;;;;;16.77;10.93;;;15.00;99.90;;;;;;5008773;28;20042;-47
2022/06/06 00:42:38;;;;;;;11.65;8.40;;;14.90;99.90;;;;;;5008534;28;20376;-46
2022/06/06 00:45:22;;;;;;;14.20;9.52;;;14.80;99.90;;;;;;5008412;28;20052;-46
2022/06/06 00:48:05;;;;;;;11.90;8.43;;;14.70;99.90;;;;;;5008389;28;20041;-45
2022/06/06 00:50:45;;;;;;;13.07;8.43;;;14.70;99.90;;;;;;5007141;28;20148;-45
2022/06/06 00:53:15;;;;;;;13.15;8.25;;;14.70;99.90;;;;;;5008364;28;20148;-46
2022/06/06 00:55:46;;;;;;;11.15;7.82;;;14.70;99.90;;;;;;5008455;28;20050;-46
2022/06/06 00:58:16;;;;;;;15.18;9.65;;;14.60;99.90;;;;;;5008362;28;20484;-46
2022/06/06 01:00:43;;;;;;;14.98;8.82;;;14.60;99.90;;;;;;5008518;28;20042;-45
2022/06/06 01:03:12;;;;;;;18.67;10.95;;;15.80;99.90;;;;;;5008055;28;20545;-45
2022/06/06 01:05:40;;;;;;;13.95;8.88;;;15.10;99.90;;;;;;5006794;28;20541;-45
2022/06/06 01:08:07;;;;;;;21.52;11.40;;;14.90;99.90;;;;;;5008174;28;20049;-47
2022/06/06 01:10:33;;;;;;;24.80;11.88;;;14.50;99.90;;;;;;5007127;28;20049;-45
2022/06/06 01:12:59;;;;;;;12.07;8.65;;;14.60;99.90;;;;;;5008134;28;20050;-46
2022/06/06 01:15:32;;;;;;;14.23;8.38;;;14.90;99.90;;;;;;5007991;28;20421;-44
2022/06/06 01:18:12;;;;;;;15.32;9.35;;;14.60;99.90;;;;;;5008279;28;20393;-46
2022/06/06 01:20:56;;;;;;;14.52;9.18;;;14.50;99.90;;;;;;5008542;28;20366;-44
2022/06/06 01:23:56;;;;;;;12.73;8.65;;;14.80;99.90;;;;;;5008421;28;20042;-45
2022/06/06 01:26:54;;;;;;;14.35;8.68;;;14.50;99.90;;;;;;5008583;28;20049;-45
2022/06/06 01:29:34;;;;;;;8.98;6.53;;;14.50;99.90;;;;;;5008262;28;20050;-45
2022/06/06 01:32:10;;;;;;;6.50;5.57;;;14.70;99.90;;;;;;5008094;28;20111;-47
2022/06/06 01:34:38;;;;;;;9.27;6.20;;;14.50;99.90;;;;;;5010234;28;20041;-46
2022/06/06 01:37:33;;;;;;;8.60;5.43;;;14.60;99.90;;;;;;5011459;28;20124;-45
2022/06/06 01:40:01;;;;;;;6.78;5.32;;;14.50;99.90;;;;;;5011106;28;20473;-44
2022/06/06 01:42:34;;;;;;;5.97;4.55;;;14.90;99.90;;;;;;5011559;28;20436;-44
2022/06/06 01:45:08;;;;;;;9.30;5.50;;;14.50;99.90;;;;;;5011316;28;20081;-44
2022/06/06 01:47:41;;;;;;;5.97;4.60;;;14.50;99.90;;;;;;5011461;28;20424;-45
2022/06/06 01:50:08;;;;;;;8.38;5.40;;;14.80;99.90;;;;;;5011600;28;20077;-45
2022/06/06 01:52:56;;;;;;;7.22;5.30;;;14.40;99.90;;;;;;5011857;28;20107;-45
2022/06/06 01:55:23;;;;;;;7.07;4.95;;;14.40;99.90;;;;;;5011817;28;20405;-45
2022/06/06 01:57:52;;;;;;;6.30;4.82;;;14.40;99.90;;;;;;5011765;28;20392;-45
2022/06/06 02:00:18;;;;;;;7.40;5.40;;;14.40;99.90;;;;;;5011136;28;20054;-46
2022/06/06 02:02:44;;;;;;;6.55;5.35;;;14.30;99.90;;;;;;5011125;28;20049;-44
2022/06/06 02:05:11;;;;;;;7.97;6.28;;;14.50;99.90;;;;;;5011032;28;20419;-46
2022/06/06 02:07:39;;;;;;;8.82;6.80;;;14.30;99.90;;;;;;5011093;28;20386;-45
2022/06/06 02:10:06;;;;;;;7.75;5.93;;;14.30;99.90;;;;;;5010595;28;20120;-46
2022/06/06 02:12:32;;;;;;;11.82;7.00;;;14.00;99.90;;;;;;5010591;28;20045;-45
2022/06/06 02:14:57;;;;;;;11.57;7.47;;;14.10;99.90;;;;;;5010350;28;20077;-45
2022/06/06 02:17:23;;;;;;;10.63;6.85;;;14.20;99.90;;;;;;5011115;28;20085;-46
2022/06/06 02:19:48;;;;;;;11.68;7.13;;;14.20;99.90;;;;;;5010702;28;20506;-44
2022/06/06 02:22:14;;;;;;;9.15;6.72;;;14.20;99.90;;;;;;5010236;28;20361;-45
2022/06/06 02:24:40;;;;;;;8.50;7.22;;;14.20;99.90;;;;;;5010774;28;20089;-44
2022/06/06 02:27:06;;;;;;;9.13;6.20;;;14.30;99.90;;;;;;5010516;28;20048;-45
2022/06/06 02:29:32;;;;;;;7.90;6.32;;;14.20;99.90;;;;;;5010508;28;20038;-46
2022/06/06 02:31:58;;;;;;;10.15;6.07;;;14.40;99.90;;;;;;5010445;28;20540;-45
2022/06/06 02:34:24;;;;;;;7.65;5.93;;;14.20;99.90;;;;;;5010354;28;20080;-45
2022/06/06 02:36:50;;;;;;;9.95;7.18;;;14.20;99.90;;;;;;5010590;28;20049;-44
2022/06/06 02:39:16;;;;;;;9.90;6.70;;;14.50;99.90;;;;;;5010880;28;20041;-44
2022/06/06 02:41:42;;;;;;;11.02;7.78;;;14.40;99.90;;;;;;5012238;28;20065;-45
2022/06/06 02:44:09;;;;;;;11.27;7.50;;;14.40;99.90;;;;;;5011848;28;20436;-44
2022/06/06 02:46:35;;;;;;;16.60;9.27;;;14.40;99.90;;;;;;5011202;28;20050;-44
2022/06/06 02:49:01;;;;;;;10.05;7.30;;;14.30;99.90;;;;;;5011860;28;20042;-44
2022/06/06 02:51:26;;;;;;;13.57;8.25;;;14.40;99.90;;;;;;5012209;28;20049;-44
2022/06/06 02:53:52;;;;;;;9.60;7.18;;;14.80;99.90;;;;;;5011726;28;20053;-44
2022/06/06 02:56:18;;;;;;;10.07;7.10;;;14.40;99.90;;;;;;5011299;28;20092;-44
2022/06/06 02:58:43;;;;;;;15.60;8.90;;;14.10;99.90;;;;;;5011945;28;20380;-46
2022/06/06 03:01:10;;;;;;;31.02;10.85;;;14.30;99.90;;;;;;5011539;28;20121;-45
2022/06/06 03:03:38;;;;;;;15.25;9.48;;;14.00;99.90;;;;;;5012026;28;20065;-45
2022/06/06 03:06:25;;;;;;;12.25;7.47;;;13.90;99.90;;;;;;5011760;28;20429;-45
2022/06/06 03:09:42;;;;;;;15.77;8.98;;;14.00;99.90;;;;;;5012044;28;20056;-45
2022/06/06 03:12:10;;;;;;;12.55;8.20;;;14.00;99.90;;;;;;5009925;28;20042;-46
2022/06/06 03:14:45;;;;;;;12.20;7.40;;;14.00;99.90;;;;;;5011621;28;20142;-45
2022/06/06 03:23:27;;;;;;;7.43;5.05;;;14.00;99.90;;;;;;5011663;28;20088;-44
2022/06/06 03:26:11;;;;;;;8.05;5.85;;;14.00;99.90;;;;;;5011653;28;20357;-44
2022/06/06 03:29:06;;;;;;;9.48;5.97;;;14.30;99.90;;;;;;5011723;28;20084;-46
2022/06/06 03:31:49;;;;;;;11.82;6.75;;;14.00;99.90;;;;;;5010447;28;20045;-45
2022/06/06 03:34:14;;;;;;;11.57;7.47;;;14.30;99.90;;;;;;5011106;28;20037;-46
2022/06/06 03:36:57;;;;;;;8.00;5.85;;;14.40;99.90;;;;;;5011439;28;20080;-46
2022/06/06 03:39:47;;;;;;;8.63;6.25;;;14.00;99.90;;;;;;5010963;28;20497;-45
2022/06/06 03:42:31;;;;;;;14.15;9.93;;;14.00;99.90;;;;;;5010862;28;20054;-45
2022/06/06 03:44:56;;;;;;;14.23;9.38;;;14.30;99.90;;;;;;5011268;28;20078;-44
2022/06/06 03:48:19;;;;;;;16.30;10.07;;;14.10;99.90;;;;;;5010914;28;20081;-45
2022/06/06 03:51:00;;;;;;;14.43;9.32;;;14.00;99.90;;;;;;4988848;28;20038;-46
2022/06/06 03:53:35;;;;;;;12.88;8.57;;;14.00;99.90;;;;;;4988728;28;20050;-44
2022/06/06 03:56:26;;;;;;;24.60;13.70;;;14.10;99.90;;;;;;5005342;28;20061;-47
2022/06/06 03:58:53;;;;;;;25.02;15.13;;;13.90;99.90;;;;;;5010974;28;20519;-45
2022/06/06 04:01:21;;;;;;;16.98;12.38;;;14.10;99.90;;;;;;5010602;28;20560;-44
2022/06/06 04:03:49;;;;;;;20.05;13.20;;;14.10;99.90;;;;;;5011016;28;20121;-47
2022/06/06 04:06:17;;;;;;;19.30;12.43;;;13.90;99.90;;;;;;5010418;28;20073;-44
2022/06/06 04:08:43;;;;;;;13.32;8.18;;;13.80;99.90;;;;;;5011070;28;20046;-45
2022/06/06 04:11:38;;;;;;;10.02;6.95;;;13.90;99.90;;;;;;5010612;28;20095;-45
2022/06/06 04:14:33;;;;;;;9.95;6.32;;;14.10;99.90;;;;;;5010453;28;20048;-44
2022/06/06 04:17:35;;;;;;;9.07;5.80;;;13.80;99.90;;;;;;5009198;28;20060;-45
2022/06/06 04:20:19;;;;;;;9.65;6.28;;;13.80;99.90;;;;;;5010639;28;20045;-48
2022/06/06 04:23:17;;;;;;;12.20;6.95;;;13.90;99.90;;;;;;5010435;28;20489;-45
2022/06/06 04:25:46;;;;;;;9.55;5.75;;;13.70;99.90;;;;;;5009204;28;20089;-45
2022/06/06 04:28:43;;;;;;;11.25;6.47;;;13.70;99.90;;;;;;5009383;28;20092;-44
2022/06/06 04:31:42;;;;;;;8.23;5.82;;;13.70;99.90;;;;;;5010610;28;20489;-44
2022/06/06 04:34:26;;;;;;;11.07;6.72;;;13.60;99.90;;;;;;5010633;28;20528;-44
2022/06/06 04:37:19;;;;;;;12.07;6.00;;;13.70;99.90;;;;;;5010669;28;20112;-44
2022/06/06 04:40:10;;;;;;;9.05;6.22;;;13.70;99.90;;;;;;5010752;28;20097;-45
2022/06/06 04:43:16;;;;;;;14.07;8.55;;;13.70;99.90;;;;;;5010507;28;20115;-46
2022/06/06 04:45:56;;;;;;;12.27;8.57;;;13.60;99.90;;;;;;5010335;28;20038;-45
2022/06/06 04:48:24;;;;;;;15.93;9.95;;;13.80;99.90;;;;;;5010465;28;20038;-46
2022/06/06 04:50:51;;;;;;;15.52;8.73;;;13.60;99.90;;;;;;5010832;28;20045;-45
2022/06/06 04:53:20;;;;;;;20.15;10.30;;;13.60;99.90;;;;;;5010380;28;20046;-44
2022/06/06 04:55:49;;;;;;;17.48;11.20;;;13.70;99.90;;;;;;5010347;28;20125;-45
2022/06/06 04:58:17;;;;;;;19.77;12.43;;;13.90;99.90;;;;;;5009994;28;20493;-44
2022/06/06 05:00:44;;;;;;;17.10;10.98;;;13.60;99.90;;;;;;5010629;28;20038;-44
2022/06/06 05:03:10;;;;;;;16.38;11.88;;;13.90;99.90;;;;;;5008717;28;20405;-43
2022/06/06 05:05:39;;;;;;;18.15;11.85;;;13.90;99.90;;;;;;5009818;28;20044;-46
2022/06/06 05:08:23;;;;;;;17.35;11.98;;;13.60;99.90;;;;;;5010356;28;20116;-44
2022/06/06 05:11:09;;;;;;;18.77;9.98;;;13.60;99.90;;;;;;5014070;28;20343;-44
2022/06/06 05:13:42;;;;;;;15.63;10.77;;;13.40;99.90;;;;;;5013983;28;20038;-44
2022/06/06 05:16:19;;;;;;;19.33;12.43;;;13.80;99.90;;;;;;5013702;28;20072;-44
2022/06/06 05:19:20;;;;;;;16.00;11.98;;;13.50;99.90;;;;;;4996164;28;20057;-45
2022/06/06 05:22:32;;;;;;;20.77;11.30;;;13.50;99.90;;;;;;5013991;28;20050;-44
2022/06/06 05:25:31;;;;;;;24.58;13.40;;;13.40;99.90;;;;;;5013736;28;20551;-43
2022/06/06 05:28:34;;;;;;;20.35;12.18;;;13.40;99.90;;;;;;5014208;28;20050;-44
2022/06/06 05:31:09;;;;;;;18.55;10.95;;;13.50;99.90;;;;;;5013971;28;20265;-44
2022/06/06 05:33:58;;;;;;;29.48;13.60;;;13.50;99.90;;;;;;5013390;28;20129;-44
2022/06/06 05:36:32;;;;;;;22.08;11.80;;;13.50;99.90;;;;;;5012841;28;20058;-44
2022/06/06 05:39:20;;;;;;;24.35;12.43;;;13.50;99.90;;;;;;5013684;28;20072;-44
2022/06/06 05:41:54;;;;;;;21.35;11.45;;;13.50;99.90;;;;;;5013341;28;20049;-44
2022/06/06 05:44:28;;;;;;;17.95;9.80;;;13.60;99.90;;;;;;5013337;28;20045;-44
2022/06/06 05:47:13;;;;;;;20.55;11.38;;;13.90;99.90;;;;;;5013404;28;20041;-45
2022/06/06 05:50:02;;;;;;;15.00;9.73;;;13.50;99.90;;;;;;5013334;28;20048;-44
2022/06/06 05:52:34;;;;;;;18.50;11.13;;;13.50;99.90;;;;;;5012914;28;20041;-44
2022/06/06 05:55:23;;;;;;;17.85;10.20;;;13.90;99.90;;;;;;5013235;28;20124;-45
2022/06/06 05:57:57;;;;;;;19.05;11.77;;;13.50;99.90;;;;;;5013237;28;20084;-45
2022/06/06 06:01:04;;;;;;;17.00;10.10;;;13.70;99.90;;;;;;5013091;28;20053;-45
2022/06/06 06:03:36;;;;;;;19.67;11.07;;;13.50;99.90;;;;;;5002519;28;20133;-45
2022/06/06 06:06:27;;;;;;;25.92;11.27;;;13.50;99.90;;;;;;5013176;28;20048;-44
2022/06/06 06:09:09;;;;;;;18.58;10.70;;;13.50;99.90;;;;;;5012732;28;20046;-44
2022/06/06 06:11:40;;;;;;;13.20;9.10;;;13.60;99.90;;;;;;5012550;28;20121;-44
2022/06/06 06:14:36;;;;;;;16.65;8.75;;;13.60;99.90;;;;;;5012848;28;20160;-43
2022/06/06 06:17:04;;;;;;;16.23;8.65;;;13.70;99.90;;;;;;5012858;28;20053;-43
2022/06/06 06:19:37;;;;;;;15.02;9.20;;;13.80;99.90;;;;;;5012589;28;20049;-45
2022/06/06 06:22:05;;;;;;;21.90;10.30;;;14.10;99.90;;;;;;5011733;28;20046;-44
2022/06/06 06:24:33;;;;;;;14.75;8.60;;;13.80;99.90;;;;;;5012602;28;20045;-46
2022/06/06 06:27:02;;;;;;;13.35;7.82;;;13.80;99.90;;;;;;5012596;28;20397;-44
2022/06/06 06:29:29;;;;;;;14.20;8.52;;;13.90;99.90;;;;;;5012473;28;20694;-44
2022/06/06 06:32:26;;;;;;;14.40;8.88;;;13.70;99.90;;;;;;5012407;28;20050;-44
2022/06/06 06:35:17;;;;;;;13.85;9.75;;;13.70;99.90;;;;;;5012653;28;20084;-44
2022/06/06 06:38:00;;;;;;;14.60;8.85;;;13.70;99.90;;;;;;5011951;28;20045;-46
2022/06/06 06:41:13;;;;;;;16.77;9.85;;;13.70;99.90;;;;;;5012401;28;20049;-45
2022/06/06 06:44:03;;;;;;;19.90;10.68;;;13.60;99.90;;;;;;5026325;28;20057;-44
2022/06/06 06:46:43;;;;;;;22.95;11.95;;;13.60;99.90;;;;;;5012256;28;20057;-44
2022/06/06 06:49:16;;;;;;;32.25;12.80;;;13.60;99.90;;;;;;5012104;28;20042;-44
2022/06/06 06:51:56;;;;;;;25.17;12.43;;;13.50;99.90;;;;;;5012075;28;20160;-44
2022/06/06 06:54:28;;;;;;;21.70;11.27;;;13.90;99.90;;;;;;5012210;28;20038;-44
2022/06/06 06:57:14;;;;;;;26.33;11.95;;;13.60;99.90;;;;;;5012144;28;20037;-44
2022/06/06 06:59:45;;;;;;;26.42;13.20;;;14.50;99.90;;;;;;5011905;28;20046;-44
2022/06/06 07:08:34;;;;;;;14.57;9.55;;;18.70;99.90;;;;;;5011743;28;20142;-44
2022/06/06 07:11:21;;;;;;;12.00;7.32;;;18.70;99.90;;;;;;5011922;28;20041;-46
2022/06/06 07:14:22;;;;;;;12.23;6.85;;;18.80;99.90;;;;;;5011648;28;20069;-45
2022/06/06 07:16:55;;;;;;;12.27;5.70;;;18.80;99.90;;;;;;5011747;28;20097;-45
2022/06/06 07:19:30;;;;;;;7.18;4.57;;;20.20;99.90;;;;;;5012105;28;20046;-45
2022/06/06 07:21:58;;;;;;;7.65;4.50;;;21.20;99.90;;;;;;5011777;28;20540;-44
2022/06/06 07:24:25;;;;;;;8.50;4.50;;;21.40;99.90;;;;;;5011681;28;20092;-44
2022/06/06 07:26:51;;;;;;;8.93;4.55;;;21.10;99.90;;;;;;5011466;28;20374;-45
2022/06/06 07:29:19;;;;;;;6.93;4.70;;;20.00;99.90;;;;;;5011135;28;20134;-45
2022/06/06 07:32:28;;;;;;;7.68;4.90;;;19.40;99.90;;;;;;5011094;28;20088;-45
2022/06/06 07:35:31;;;;;;;8.05;4.70;;;18.90;99.90;;;;;;5011068;28;20045;-44
2022/06/06 07:38:17;;;;;;;6.30;4.38;;;18.70;99.90;;;;;;5011084;28;20045;-44
2022/06/06 07:40:54;;;;;;;7.82;4.88;;;18.50;99.90;;;;;;5011323;28;20428;-46
2022/06/06 07:43:59;;;;;;;6.80;4.43;;;18.00;99.90;;;;;;5011072;28;20525;-44
2022/06/06 07:46:42;;;;;;;7.22;4.32;;;17.50;99.90;;;;;;5008514;28;20049;-43
2022/06/06 07:49:13;;;;;;;8.20;4.55;;;17.10;99.90;;;;;;5008379;28;20069;-46
2022/06/06 07:51:48;;;;;;;8.35;5.00;;;16.80;99.90;;;;;;5009883;28;20054;-44
2022/06/06 07:54:36;;;;;;;8.23;4.88;;;16.50;99.90;;;;;;5010645;28;20049;-45
2022/06/06 07:57:20;;;;;;;6.60;4.80;;;16.30;99.90;;;;;;5011286;28;20115;-44
2022/06/06 08:00:03;;;;;;;8.80;5.22;;;16.20;99.90;;;;;;5010965;28;20038;-44
2022/06/06 08:03:07;;;;;;;9.23;5.57;;;16.20;99.90;;;;;;5011031;28;20058;-44
2022/06/06 08:05:57;;;;;;;8.48;5.55;;;16.50;99.90;;;;;;5009680;28;20060;-46
2022/06/06 08:08:42;;;;;;;10.15;6.15;;;16.80;99.90;;;;;;5011053;28;20072;-43
2022/06/06 08:11:32;;;;;;;10.05;5.78;;;17.70;99.90;;;;;;5010382;28;20480;-45
2022/06/06 08:14:47;;;;;;;12.35;5.97;;;18.60;99.90;;;;;;5009526;28;20428;-44
2022/06/06 08:17:19;;;;;;;8.75;5.43;;;19.80;99.90;;;;;;4990594;28;20092;-45
2022/06/06 08:20:03;;;;;;;7.63;5.05;;;21.00;99.90;;;;;;5010165;28;20080;-45
2022/06/06 08:22:31;;;;;;;9.30;5.32;;;21.70;99.90;;;;;;5009388;28;20084;-44
2022/06/06 08:25:01;;;;;;;9.52;6.07;;;21.50;99.90;;;;;;5010439;28;20077;-45
2022/06/06 08:27:28;;;;;;;8.35;5.75;;;21.10;99.90;;;;;;5010390;28;20044;-44
2022/06/06 08:29:54;;;;;;;9.52;6.70;;;20.40;99.90;;;;;;5010321;28;20060;-44
2022/06/06 08:32:21;;;;;;;12.80;7.13;;;19.90;99.90;;;;;;5010522;28;20053;-44
2022/06/06 08:34:48;;;;;;;11.35;6.88;;;19.60;99.90;;;;;;5009865;28;20052;-46
2022/06/06 08:37:37;;;;;;;9.85;5.60;;;18.50;99.90;;;;;;5008818;28;20049;-45
2022/06/06 08:40:31;;;;;;;9.02;5.55;;;18.10;99.90;;;;;;5009146;28;20049;-46
2022/06/06 08:43:01;;;;;;;10.73;5.10;;;17.50;99.90;;;;;;5009042;28;20065;-45
2022/06/06 08:45:52;;;;;;;8.45;6.13;;;18.20;99.90;;;;;;5013284;28;20034;-45
2022/06/06 08:48:45;;;;;;;7.47;4.97;;;19.20;99.90;;;;;;5013629;28;20552;-47
2022/06/06 08:51:52;;;;;;;10.77;5.47;;;19.60;99.90;;;;;;5012901;28;20107;-46
2022/06/06 08:54:30;;;;;;;8.90;5.40;;;19.20;99.90;;;;;;5012358;28;20132;-46
2022/06/06 08:57:19;;;;;;;8.80;4.13;;;18.60;99.90;;;;;;5011912;28;20129;-49
2022/06/06 09:00:03;;;;;;;6.80;3.75;;;18.20;99.90;;;;;;5012489;28;20854;-48
2022/06/06 09:02:58;;;;;;;6.90;3.67;;;17.80;99.90;;;;;;5011922;28;20184;-51
2022/06/06 09:05:45;;;;;;;6.10;3.35;;;21.20;99.90;;;;;;5012429;28;20116;-48
2022/06/06 09:08:45;;;;;;;4.80;2.65;;;21.40;99.90;;;;;;5012310;28;20056;-45
2022/06/06 09:11:40;;;;;;;6.38;2.65;;;22.30;99.90;;;;;;5010628;28;20557;-47
2022/06/06 09:14:27;;;;;;;5.38;2.35;;;22.20;99.90;;;;;;5011676;28;20041;-46
2022/06/06 09:17:12;;;;;;;6.47;2.35;;;21.90;99.90;;;;;;5011874;28;20057;-47
2022/06/06 09:19:48;;;;;;;3.97;1.77;;;21.50;99.90;;;;;;5012209;28;20038;-47
2022/06/06 09:22:52;;;;;;;5.63;1.92;;;22.90;99.90;;;;;;5012409;28;20076;-46
2022/06/06 09:25:37;;;;;;;6.38;2.20;;;25.20;99.90;;;;;;5012094;28;20042;-48
2022/06/06 09:28:21;;;;;;;6.18;1.63;;;27.10;99.90;;;;;;5011259;28;20483;-45
2022/06/06 09:31:05;;;;;;;3.38;1.38;;;28.00;93.90;;;;;;5011800;28;20397;-46
2022/06/06 09:33:49;;;;;;;3.65;0.90;;;26.80;90.50;;;;;;5012296;28;20089;-47
2022/06/06 09:36:23;;;;;;;5.57;0.75;;;25.40;90.00;;;;;;5011655;28;20045;-45
2022/06/06 09:39:17;;;;;;;3.88;0.60;;;23.90;91.90;;;;;;5010945;28;20504;-46
2022/06/06 09:42:35;;;;;;;3.30;0.63;;;23.90;93.50;;;;;;5011823;28;20061;-46
2022/06/06 09:45:19;;;;;;;5.35;0.80;;;25.10;94.80;;;;;;5010232;28;20061;-44
2022/06/06 09:48:24;;;;;;;4.38;0.50;;;26.50;91.20;;;;;;5011742;28;20038;-46
2022/06/06 09:51:20;;;;;;;4.85;1.23;;;27.20;83.00;;;;;;5011117;28;20096;-44
2022/06/06 10:00:22;;;;;;;4.60;0.52;;;22.10;82.10;;;;;;5010258;28;20413;-39
2022/06/06 10:03:16;;;;;;;6.72;0.95;;;20.40;90.40;;;;;;5011008;28;20116;-41
2022/06/06 10:05:59;;;;;;;3.75;0.65;;;19.40;94.80;;;;;;5011014;28;20050;-42
2022/06/06 10:09:04;;;;;;;3.13;0.70;;;19.80;97.60;;;;;;5011261;28;20085;-40
2022/06/06 10:12:11;;;;;;;3.65;0.88;;;21.40;97.50;;;;;;5011026;28;20410;-40
2022/06/06 10:15:09;;;;;;;3.05;0.80;;;24.10;99.10;;;;;;5009134;28;20054;-40
2022/06/06 10:17:53;;;;;;;6.05;0.73;;;25.40;92.20;;;;;;5009411;28;20493;-41
2022/06/06 10:20:49;;;;;;;3.35;0.70;;;24.70;84.70;;;;;;5011091;28;20045;-41
2022/06/06 10:23:40;;;;;;;2.25;0.80;;;23.20;87.70;;;;;;5010712;28;20096;-40
2022/06/06 10:26:25;;;;;;;3.03;0.55;;;21.80;91.80;;;;;;5010497;28;20505;-40
2022/06/06 10:28:51;;;;;;;3.13;0.40;;;20.90;94.00;;;;;;5010679;28;20097;-39
2022/06/06 10:31:35;;;;;;;2.53;0.90;;;20.50;96.10;;;;;;5010798;28;20041;-40
2022/06/06 10:34:32;;;;;;;4.95;0.90;;;20.10;96.70;;;;;;5010767;28;20056;-41
2022/06/06 10:37:09;;;;;;;3.63;0.90;;;19.60;98.40;;;;;;5009770;28;20049;-40
2022/06/06 10:40:04;;;;;;;3.60;0.80;;;19.10;99.90;;;;;;5010900;28;20045;-39
2022/06/06 10:42:50;;;;;;;4.10;0.60;;;18.70;99.90;;;;;;5010013;28;20049;-41
2022/06/06 10:45:16;;;;;;;2.67;0.90;;;18.50;99.90;;;;;;5010257;28;20065;-39
2022/06/06 10:48:10;;;;;;;2.03;0.47;;;18.60;99.90;;;;;;5010744;28;20046;-40
2022/06/06 10:54:11;;;;;;;3.35;0.50;;;19.80;99.90;;;;;;5010690;28;20050;-41
2022/06/06 10:57:12;;;;;;;4.32;0.82;;;20.60;99.90;;;;;;5010660;28;20045;-39
2022/06/06 10:59:57;;;;;;;2.17;0.77;;;20.70;99.90;;;;;;5010688;28;20124;-41
2022/06/06 11:02:47;;;;;;;3.60;0.77;;;20.50;99.30;;;;;;5010323;28;20060;-41
2022/06/06 11:05:39;;;;;;;2.70;0.70;;;20.40;99.40;;;;;;5009844;28;20084;-39
2022/06/06 11:08:16;;;;;;;2.88;1.02;;;20.40;99.60;;;;;;5009413;28;20046;-40
2022/06/06 11:11:23;;;;;;;3.30;0.70;;;20.40;99.20;;;;;;5010040;28;20508;-40
2022/06/06 11:13:48;;;;;;;3.22;0.90;;;20.40;98.40;;;;;;5009357;28;20049;-40
2022/06/06 11:16:32;;;;;;;2.65;1.02;;;20.40;98.70;;;;;;5011199;28;20057;-39
2022/06/06 11:19:21;;;;;;;5.90;0.50;;;20.50;97.70;;;;;;5011121;28;20500;-39
2022/06/06 11:21:50;;;;;;;2.83;0.43;;;20.40;96.70;;;;;;5011367;28;20045;-39
2022/06/06 11:24:37;;;;;;;2.63;0.40;;;20.20;96.30;;;;;;5011116;28;20521;-39
2022/06/06 11:27:15;;;;;;;2.03;0.38;;;20.00;95.10;;;;;;5011279;28;20096;-39
2022/06/06 11:30:04;;;;;;;2.67;0.50;;;19.60;96.60;;;;;;5011314;28;20046;-40
2022/06/06 11:32:58;;;;;;;2.53;0.90;;;19.50;97.10;;;;;;5011485;28;20363;-39
2022/06/06 11:35:29;;;;;;;6.82;0.68;;;19.40;95.80;;;;;;5011338;28;20037;-40
2022/06/06 11:38:11;;;;;;;2.27;0.40;;;19.30;95.60;;;;;;5011561;28;20132;-40
2022/06/06 11:41:04;;;;;;;1.92;0.30;;;19.30;96.60;;;;;;5011513;28;20038;-39
2022/06/06 11:43:43;;;;;;;1.52;0.20;;;19.10;96.60;;;;;;5011261;28;20049;-40
2022/06/06 11:46:22;;;;;;;3.72;0.40;;;18.90;96.10;;;;;;5010816;28;20045;-40
2022/06/06 11:49:01;;;;;;;1.02;0.30;;;18.90;96.80;;;;;;5011137;28;20050;-40
2022/06/06 11:51:38;;;;;;;1.88;0.30;;;19.20;97.20;;;;;;5010900;28;20421;-40
2022/06/06 11:54:25;;;;;;;1.80;0.20;;;19.50;96.80;;;;;;5010947;28;20487;-39
2022/06/06 11:57:26;;;;;;;2.70;0.30;;;19.80;97.80;;;;;;5011156;28;20054;-40
2022/06/06 12:00:07;;;;;;;2.00;0.30;;;19.90;96.10;;;;;;5011180;28;20054;-39
2022/06/06 12:03:10;;;;;;;1.15;0.28;;;20.00;97.10;;;;;;5011113;28;20046;-39
2022/06/06 12:06:07;;;;;;;2.00;0.30;;;20.20;97.00;;;;;;5011096;28;20038;-39
2022/06/06 12:08:40;;;;;;;2.25;0.40;;;20.30;96.20;;;;;;5011108;28;20099;-39
2022/06/06 12:11:08;;;;;;;1.98;0.47;;;20.20;96.30;;;;;;5010933;28;20104;-40
2022/06/06 12:13:52;;;;;;;3.03;0.40;;;20.30;95.80;;;;;;5010680;28;20519;-40
2022/06/06 12:16:39;;;;;;;1.40;0.40;;;20.00;96.30;;;;;;5010422;28;20065;-40
2022/06/06 12:19:43;;;;;;;2.63;0.43;;;19.90;96.50;;;;;;5010596;28;20489;-39
2022/06/06 12:22:24;;;;;;;2.13;0.35;;;19.70;97.30;;;;;;5010342;28;20066;-39
2022/06/06 12:25:16;;;;;;;4.35;0.70;;;19.80;97.00;;;;;;5010875;28;20052;-40
2022/06/06 12:28:35;;;;;;;1.38;0.20;;;19.70;97.00;;;;;;5009118;28;20053;-39
2022/06/06 12:31:37;;;;;;;3.97;0.32;;;19.50;95.60;;;;;;5007926;28;20077;-41
2022/06/06 12:34:06;;;;;;;2.67;0.40;;;19.50;95.60;;;;;;5010816;28;20067;-39
2022/06/06 12:37:13;;;;;;;0.98;0.20;;;19.60;96.90;;;;;;5010118;28;20059;-39
2022/06/06 12:40:00;;;;;;;1.95;0.52;;;19.70;96.00;;;;;;5007812;28;20054;-39
2022/06/06 12:42:37;;;;;;;1.75;0.10;;;20.10;93.40;;;;;;5006906;28;20046;-39
2022/06/06 12:45:21;;;;;;;0.85;0.20;;;20.30;92.50;;;;;;5008040;28;20133;-40
2022/06/06 12:48:22;;;;;;;2.15;0.50;;;20.50;93.80;;;;;;5008251;28;20042;-44
2022/06/06 12:50:56;;;;;;;1.83;0.30;;;20.60;93.70;;;;;;5007592;28;20061;-39
2022/06/06 12:53:54;;;;;;;2.30;0.73;;;20.60;92.50;;;;;;5008712;28;20057;-40
2022/06/06 12:56:38;;;;;;;1.98;0.30;;;20.60;91.90;;;;;;5006031;28;20050;-41
2022/06/06 12:59:17;;;;;;;0.70;0.10;;;20.50;90.60;;;;;;5008530;28;20042;-41
2022/06/06 13:01:53;;;;;;;0.80;0.30;;;20.50;90.60;;;;;;5007866;28;20046;-40
2022/06/06 13:04:50;;;;;;;1.05;0.25;;;20.40;90.40;;;;;;5007367;28;20486;-39
2022/06/06 13:07:38;;;;;;;3.58;0.45;;;20.30;88.50;;;;;;5007558;28;20042;-39
2022/06/06 13:10:17;;;;;;;3.67;0.20;;;20.20;89.00;;;;;;5007534;28;20045;-39
2022/06/06 13:12:51;;;;;;;2.53;0.30;;;20.20;89.70;;;;;;5007663;28;20133;-40
2022/06/06 13:15:34;;;;;;;2.55;0.20;;;20.00;90.70;;;;;;5007842;28;20049;-40
2022/06/06 13:18:22;;;;;;;2.25;0.28;;;20.20;90.60;;;;;;5008354;28;20089;-39
2022/06/06 13:21:12;;;;;;;2.22;0.30;;;20.20;90.50;;;;;;5008447;28;20049;-40
2022/06/06 13:23:49;;;;;;;1.33;0.20;;;20.20;90.40;;;;;;5007816;28;20049;-40
2022/06/06 13:26:48;;;;;;;1.80;0.60;;;20.20;89.50;;;;;;5008295;28;20046;-38
2022/06/06 13:29:27;;;;;;;1.52;0.28;;;20.20;89.60;;;;;;5008156;28;20372;-38
2022/06/06 13:32:20;;;;;;;1.63;0.47;;;20.20;90.60;;;;;;5011461;28;20038;-38
2022/06/06 13:35:11;;;;;;;2.60;0.52;;;20.30;90.40;;;;;;5012211;28;20041;-38
2022/06/06 13:37:52;;;;;;;2.35;0.30;;;20.20;90.30;;;;;;5011122;28;20099;-37
2022/06/06 13:40:32;;;;;;;3.92;0.30;;;20.30;91.30;;;;;;5011279;28;20077;-38
2022/06/06 13:43:22;;;;;;;2.40;0.30;;;20.40;90.40;;;;;;5011516;28;20056;-38
2022/06/06 13:46:01;;;;;;;1.52;0.10;;;20.50;90.30;;;;;;5011762;28;20042;-38
2022/06/06 13:49:01;;;;;;;3.47;0.20;;;20.30;88.60;;;;;;5011663;28;20042;-38
2022/06/06 13:51:45;;;;;;;2.70;0.25;;;20.20;88.90;;;;;;5011660;28;20044;-42
2022/06/06 13:54:31;;;;;;;3.92;0.30;;;20.10;90.00;;;;;;5011131;28;20068;-37
2022/06/06 13:57:13;;;;;;;2.55;0.20;;;19.90;91.70;;;;;;5010996;28;20085;-37
2022/06/06 13:59:48;;;;;;;3.05;0.40;;;19.60;90.40;;;;;;5010603;28;20042;-37
2022/06/06 14:02:51;;;;;;;3.95;0.30;;;19.30;90.60;;;;;;5010711;28;20412;-38
2022/06/06 14:05:26;;;;;;;1.52;0.32;;;18.90;91.90;;;;;;5009367;28;20054;-38
2022/06/06 14:08:08;;;;;;;0.98;0.30;;;18.60;92.90;;;;;;5010884;28;20053;-38
2022/06/06 14:11:02;;;;;;;2.35;0.40;;;17.70;95.30;;;;;;5010376;28;20042;-37
2022/06/06 14:13:54;;;;;;;4.40;0.90;;;17.60;97.30;;;;;;5010033;28;20054;-38
2022/06/06 14:16:53;;;;;;;1.70;0.65;;;17.10;99.60;;;;;;5010702;28;20049;-37